Wilmington International Airport
KILM : now visible

Airfield :











YOU CAN JOIN US ON...

 
LOGIN :

Register | Disclaimer

   EN    FR    IT 

 









Legend :    VFR   Marginal VFR   IFR   Intensive IFR   Very Intensive IFR
Visi :
Ceiling :
>= 8 km
>= 3000ft
5 to 8 km
1000 to 3000 ft
1500m to 5 km
500 to 1000 ft
800 to 1500m
200 to 500 ft
< 800m
< 200 ft
Symbols :   Thunderstorms  Fog  Heavy snow  Heavy precipitations  Wind > 20 kt






- Airport Elevation : 32 ft
- IATA code : ILM


KILM - Wilmington International

CURRENT METAR :
  • 130453Z 00000KT 10SM FEW050 25/23 A3000 RMK AO2 SLP158 T02500233 403110233

EXPIRED METARs :
  • 130353Z 25003KT 10SM CLR 26/23 A2999 RMK AO2 LTG DSNT S AND SW SLP155 T02560233
  • 130253Z 00000KT 10SM SCT050 26/23 A3002 RMK AO2 LTG DSNT SW SLP164 LAST T02560233 53011

TAF KILM
Valid from the 13 at 00:00 until the 14 at 00:00 UTC


122320Z 1300/1324 14005KT P6SM SCT100
FM130200 13003KT P6SM VCTS SCT090CB
FM130600 13003KT P6SM VCSH BKN060
FM131200 19006KT P6SM BKN040
FM131800 19006KT 6SM BR VCSH BKN045
KZDC FIR / North America



MET'MAP, your aeronautical weather chart ! - Copyright ORBIFLY December 2007 - Disclaimer

ORBIFLY MET'MAP TEAM :

Programming & Development : Alexandra Zaïnal
Concept & original design : Baudouin d'Aumeries
Assistance for programming : Marc-Olivier Méhu
Technical & hardware support : Manuel Goepfert

Contact : metmap@orbifly.com




SOURCES & CREDITS :

   NOAA       Earth
Advisory